Centralia, Missouri
Current Conditions -  °F | °C
As of 6:54 AM on Thursday 23 Oct 2014 (Local Time) from KCOU Reporting Station
Broken Clouds Broken Clouds  
Wind Chill: 44°   Ceiling: 4600
Heat Index: 47°   Visibility: 10mi
Dew Point: 43°   Wind: 7mph
Humidity: 86%   Direction: 120°ESE
Pressure: 30.15"   Gusts: NA
Location:  39.21°N, 92.14°W
Report Text: KCOU 231154Z 12006KT 10SM BKN046 08/06 A3015 RMK AO2 SLP209 T00830061 10094 20067 58005
Loading
Personal Weather Stations






























Interactive Weather Map
Tropical Storm Tracking
New forecast layout! Learn more

10-Day Weather Forecast

Advertisements
Track Severe Weather on mobile